sensor_id;sensor_type;location;lat;lon;timestamp;temperature;humidity
770;DHT22;368;48.698;9.116;2022-12-18T00:01:59;-11.40;99.90
770;DHT22;368;48.698;9.116;2022-12-18T00:04:27;-11.10;99.90
770;DHT22;368;48.698;9.116;2022-12-18T00:06:55;-11.20;99.90
770;DHT22;368;48.698;9.116;2022-12-18T00:09:22;-11.30;99.90
770;DHT22;368;48.698;9.116;2022-12-18T00:11:49;-11.50;99.90
770;DHT22;368;48.698;9.116;2022-12-18T00:14:16;-11.60;99.90
770;DHT22;368;48.698;9.116;2022-12-18T00:16:44;-11.50;99.90
770;DHT22;368;48.698;9.116;2022-12-18T00:19:12;-11.60;99.90
770;DHT22;368;48.698;9.116;2022-12-18T00:21:39;-11.40;99.90
770;DHT22;368;48.698;9.116;2022-12-18T00:24:08;-11.50;99.90
770;DHT22;368;48.698;9.116;2022-12-18T00:26:37;-11.60;99.90
770;DHT22;368;48.698;9.116;2022-12-18T00:29:07;-11.50;99.90
770;DHT22;368;48.698;9.116;2022-12-18T00:31:34;-11.60;99.90
770;DHT22;368;48.698;9.116;2022-12-18T00:34:02;-11.50;99.90
770;DHT22;368;48.698;9.116;2022-12-18T00:36:30;-11.40;99.90
770;DHT22;368;48.698;9.116;2022-12-18T00:38:59;-11.30;99.90
770;DHT22;368;48.698;9.116;2022-12-18T00:41:27;-11.30;99.90
770;DHT22;368;48.698;9.116;2022-12-18T00:44:14;-11.20;99.90
770;DHT22;368;48.698;9.116;2022-12-18T00:46:41;-11.10;99.90
770;DHT22;368;48.698;9.116;2022-12-18T00:49:08;-11.50;99.90
770;DHT22;368;48.698;9.116;2022-12-18T00:51:35;-11.70;99.90
770;DHT22;368;48.698;9.116;2022-12-18T00:54:02;-11.80;99.90
770;DHT22;368;48.698;9.116;2022-12-18T00:56:30;-11.70;99.90
770;DHT22;368;48.698;9.116;2022-12-18T00:58:57;-11.50;99.90
770;DHT22;368;48.698;9.116;2022-12-18T01:01:24;-11.40;99.90
770;DHT22;368;48.698;9.116;2022-12-18T01:03:51;-11.40;99.90
770;DHT22;368;48.698;9.116;2022-12-18T01:06:18;-11.40;99.90
770;DHT22;368;48.698;9.116;2022-12-18T01:08:45;-11.40;99.90
770;DHT22;368;48.698;9.116;2022-12-18T01:11:13;-11.50;99.90
770;DHT22;368;48.698;9.116;2022-12-18T01:13:42;-11.50;99.90
770;DHT22;368;48.698;9.116;2022-12-18T01:16:11;-11.40;99.90
770;DHT22;368;48.698;9.116;2022-12-18T01:18:38;-11.90;99.90
770;DHT22;368;48.698;9.116;2022-12-18T01:21:07;-12.00;99.90
770;DHT22;368;48.698;9.116;2022-12-18T01:23:33;-11.90;99.90
770;DHT22;368;48.698;9.116;2022-12-18T01:26:04;-11.50;99.90
770;DHT22;368;48.698;9.116;2022-12-18T01:28:31;-11.50;99.90
770;DHT22;368;48.698;9.116;2022-12-18T01:31:14;-11.50;99.90
770;DHT22;368;48.698;9.116;2022-12-18T01:33:41;-11.50;99.90
770;DHT22;368;48.698;9.116;2022-12-18T01:36:13;-11.50;99.90
770;DHT22;368;48.698;9.116;2022-12-18T01:38:40;-11.50;99.90
770;DHT22;368;48.698;9.116;2022-12-18T01:41:08;-11.50;99.90
770;DHT22;368;48.698;9.116;2022-12-18T01:43:44;-11.40;99.90
770;DHT22;368;48.698;9.116;2022-12-18T01:46:13;-11.30;99.90
770;DHT22;368;48.698;9.116;2022-12-18T01:48:40;-11.50;99.90
770;DHT22;368;48.698;9.116;2022-12-18T01:51:10;-11.40;99.90
770;DHT22;368;48.698;9.116;2022-12-18T01:53:39;-11.40;99.90
770;DHT22;368;48.698;9.116;2022-12-18T01:56:07;-11.40;99.90
770;DHT22;368;48.698;9.116;2022-12-18T01:58:39;-11.50;99.90
770;DHT22;368;48.698;9.116;2022-12-18T02:01:08;-11.60;99.90
770;DHT22;368;48.698;9.116;2022-12-18T02:03:36;-11.60;99.90
770;DHT22;368;48.698;9.116;2022-12-18T02:06:08;-11.60;99.90
770;DHT22;368;48.698;9.116;2022-12-18T02:08:42;-11.30;99.90
770;DHT22;368;48.698;9.116;2022-12-18T02:11:17;-11.40;99.90
770;DHT22;368;48.698;9.116;2022-12-18T02:13:53;-11.10;99.90
770;DHT22;368;48.698;9.116;2022-12-18T02:16:25;-10.60;99.90
770;DHT22;368;48.698;9.116;2022-12-18T02:18:59;-10.80;99.90
770;DHT22;368;48.698;9.116;2022-12-18T02:21:32;-10.80;99.90
770;DHT22;368;48.698;9.116;2022-12-18T02:24:13;-10.90;99.90
770;DHT22;368;48.698;9.116;2022-12-18T02:26:48;-10.80;99.90
770;DHT22;368;48.698;9.116;2022-12-18T02:29:20;-11.10;99.90
770;DHT22;368;48.698;9.116;2022-12-18T02:31:50;-11.10;99.90
770;DHT22;368;48.698;9.116;2022-12-18T02:34:18;-10.70;99.90
770;DHT22;368;48.698;9.116;2022-12-18T02:36:46;-10.60;99.90
770;DHT22;368;48.698;9.116;2022-12-18T02:39:16;-10.60;99.90
770;DHT22;368;48.698;9.116;2022-12-18T02:41:44;-10.70;99.90
770;DHT22;368;48.698;9.116;2022-12-18T02:44:13;-10.90;99.90
770;DHT22;368;48.698;9.116;2022-12-18T02:46:42;-10.90;99.90
770;DHT22;368;48.698;9.116;2022-12-18T02:49:20;-10.70;99.90
770;DHT22;368;48.698;9.116;2022-12-18T02:51:52;-10.70;99.90
770;DHT22;368;48.698;9.116;2022-12-18T02:54:52;-10.50;99.90
770;DHT22;368;48.698;9.116;2022-12-18T02:57:29;-10.30;99.90
770;DHT22;368;48.698;9.116;2022-12-18T03:00:03;-10.60;99.90
770;DHT22;368;48.698;9.116;2022-12-18T03:02:36;-10.70;99.90
770;DHT22;368;48.698;9.116;2022-12-18T03:05:09;-11.10;99.90
770;DHT22;368;48.698;9.116;2022-12-18T03:07:41;-11.00;99.90
770;DHT22;368;48.698;9.116;2022-12-18T03:10:13;-10.80;99.90
770;DHT22;368;48.698;9.116;2022-12-18T03:12:44;-10.40;99.90
770;DHT22;368;48.698;9.116;2022-12-18T03:15:18;-10.40;99.90
770;DHT22;368;48.698;9.116;2022-12-18T03:17:52;-10.40;99.90
770;DHT22;368;48.698;9.116;2022-12-18T03:20:22;-10.40;99.90
770;DHT22;368;48.698;9.116;2022-12-18T03:22:53;-10.40;99.90
770;DHT22;368;48.698;9.116;2022-12-18T03:25:21;-10.50;99.90
770;DHT22;368;48.698;9.116;2022-12-18T03:27:54;-10.70;99.90
770;DHT22;368;48.698;9.116;2022-12-18T03:30:23;-10.50;99.90
770;DHT22;368;48.698;9.116;2022-12-18T03:32:56;-10.30;99.90
770;DHT22;368;48.698;9.116;2022-12-18T03:35:28;-10.30;99.90
770;DHT22;368;48.698;9.116;2022-12-18T03:37:56;-10.20;99.90
770;DHT22;368;48.698;9.116;2022-12-18T03:40:29;-10.30;99.90
770;DHT22;368;48.698;9.116;2022-12-18T03:43:05;-10.10;99.90
770;DHT22;368;48.698;9.116;2022-12-18T03:45:39;-10.20;99.90
770;DHT22;368;48.698;9.116;2022-12-18T03:48:13;-10.10;99.90
770;DHT22;368;48.698;9.116;2022-12-18T03:50:46;-10.00;99.90
770;DHT22;368;48.698;9.116;2022-12-18T03:53:21;-9.90;99.90
770;DHT22;368;48.698;9.116;2022-12-18T03:55:50;-10.10;99.90
770;DHT22;368;48.698;9.116;2022-12-18T03:58:23;-10.10;99.90
770;DHT22;368;48.698;9.116;2022-12-18T04:00:52;-10.20;99.90
770;DHT22;368;48.698;9.116;2022-12-18T04:03:21;-10.20;99.90
770;DHT22;368;48.698;9.116;2022-12-18T04:05:51;-10.30;99.90
770;DHT22;368;48.698;9.116;2022-12-18T04:08:19;-10.20;99.90
770;DHT22;368;48.698;9.116;2022-12-18T04:10:47;-10.30;99.90
770;DHT22;368;48.698;9.116;2022-12-18T04:13:23;-10.50;99.90
770;DHT22;368;48.698;9.116;2022-12-18T04:15:51;-10.50;99.90
770;DHT22;368;48.698;9.116;2022-12-18T04:18:18;-10.60;99.90
770;DHT22;368;48.698;9.116;2022-12-18T04:20:46;-10.40;99.90
770;DHT22;368;48.698;9.116;2022-12-18T04:23:12;-10.50;99.90
770;DHT22;368;48.698;9.116;2022-12-18T04:25:39;-10.60;99.90
770;DHT22;368;48.698;9.116;2022-12-18T04:28:06;-10.70;99.90
770;DHT22;368;48.698;9.116;2022-12-18T04:30:34;-11.00;99.90
770;DHT22;368;48.698;9.116;2022-12-18T04:33:01;-10.80;99.90
770;DHT22;368;48.698;9.116;2022-12-18T04:35:28;-10.70;99.90
770;DHT22;368;48.698;9.116;2022-12-18T04:37:55;-10.70;99.90
770;DHT22;368;48.698;9.116;2022-12-18T04:40:22;-10.50;99.90
770;DHT22;368;48.698;9.116;2022-12-18T04:42:48;-10.40;99.90
770;DHT22;368;48.698;9.116;2022-12-18T04:45:15;-10.60;99.90
770;DHT22;368;48.698;9.116;2022-12-18T04:47:44;-10.70;99.90
770;DHT22;368;48.698;9.116;2022-12-18T04:50:11;-10.60;99.90
770;DHT22;368;48.698;9.116;2022-12-18T04:52:37;-10.50;99.90
770;DHT22;368;48.698;9.116;2022-12-18T04:55:05;-10.30;99.90
770;DHT22;368;48.698;9.116;2022-12-18T04:57:32;-10.60;99.90
770;DHT22;368;48.698;9.116;2022-12-18T04:59:58;-10.60;99.90
770;DHT22;368;48.698;9.116;2022-12-18T05:02:25;-10.50;99.90
770;DHT22;368;48.698;9.116;2022-12-18T05:04:53;-10.30;99.90
770;DHT22;368;48.698;9.116;2022-12-18T05:07:20;-10.40;99.90
770;DHT22;368;48.698;9.116;2022-12-18T05:09:47;-10.30;99.90
770;DHT22;368;48.698;9.116;2022-12-18T05:12:14;-10.30;99.90
770;DHT22;368;48.698;9.116;2022-12-18T05:14:40;-10.60;99.90
770;DHT22;368;48.698;9.116;2022-12-18T05:17:07;-10.60;99.90
770;DHT22;368;48.698;9.116;2022-12-18T05:19:34;-10.60;99.90
770;DHT22;368;48.698;9.116;2022-12-18T05:22:02;-10.50;99.90
770;DHT22;368;48.698;9.116;2022-12-18T05:24:29;-10.60;99.90
770;DHT22;368;48.698;9.116;2022-12-18T05:26:56;-10.60;99.90
770;DHT22;368;48.698;9.116;2022-12-18T05:29:23;-10.50;99.90
770;DHT22;368;48.698;9.116;2022-12-18T05:31:50;-10.50;99.90
770;DHT22;368;48.698;9.116;2022-12-18T05:34:16;-10.60;99.90
770;DHT22;368;48.698;9.116;2022-12-18T05:36:43;-10.50;99.90
770;DHT22;368;48.698;9.116;2022-12-18T05:39:11;-10.30;99.90
770;DHT22;368;48.698;9.116;2022-12-18T05:41:38;-10.30;99.90
770;DHT22;368;48.698;9.116;2022-12-18T05:44:05;-10.30;99.90
770;DHT22;368;48.698;9.116;2022-12-18T05:46:32;-10.50;99.90
770;DHT22;368;48.698;9.116;2022-12-18T05:48:59;-10.30;99.90
770;DHT22;368;48.698;9.116;2022-12-18T05:51:27;-10.20;99.90
770;DHT22;368;48.698;9.116;2022-12-18T05:53:54;-10.50;99.90
770;DHT22;368;48.698;9.116;2022-12-18T05:56:23;-10.80;99.90
770;DHT22;368;48.698;9.116;2022-12-18T05:58:51;-10.90;99.90
770;DHT22;368;48.698;9.116;2022-12-18T06:01:20;-11.30;99.90
770;DHT22;368;48.698;9.116;2022-12-18T06:03:48;-11.30;99.90
770;DHT22;368;48.698;9.116;2022-12-18T06:06:15;-11.40;99.90
770;DHT22;368;48.698;9.116;2022-12-18T06:08:42;-11.30;99.90
770;DHT22;368;48.698;9.116;2022-12-18T06:11:09;-11.00;99.90
770;DHT22;368;48.698;9.116;2022-12-18T06:13:38;-10.80;99.90
770;DHT22;368;48.698;9.116;2022-12-18T06:16:05;-11.10;99.90
770;DHT22;368;48.698;9.116;2022-12-18T06:18:33;-11.20;99.90
770;DHT22;368;48.698;9.116;2022-12-18T06:21:00;-11.20;99.90
770;DHT22;368;48.698;9.116;2022-12-18T06:23:27;-11.20;99.90
770;DHT22;368;48.698;9.116;2022-12-18T06:25:54;-11.30;99.90
770;DHT22;368;48.698;9.116;2022-12-18T06:28:21;-11.30;99.90
770;DHT22;368;48.698;9.116;2022-12-18T06:30:49;-11.30;99.90
770;DHT22;368;48.698;9.116;2022-12-18T06:33:16;-11.30;99.90
770;DHT22;368;48.698;9.116;2022-12-18T06:35:43;-11.40;99.90
770;DHT22;368;48.698;9.116;2022-12-18T06:38:10;-11.50;99.90
770;DHT22;368;48.698;9.116;2022-12-18T06:40:37;-11.60;99.90
770;DHT22;368;48.698;9.116;2022-12-18T06:43:05;-11.60;99.90
770;DHT22;368;48.698;9.116;2022-12-18T06:45:32;-11.80;99.90
770;DHT22;368;48.698;9.116;2022-12-18T06:48:00;-11.90;99.90
770;DHT22;368;48.698;9.116;2022-12-18T06:50:27;-11.70;99.90
770;DHT22;368;48.698;9.116;2022-12-18T06:52:54;-11.50;99.90
770;DHT22;368;48.698;9.116;2022-12-18T06:55:21;-11.70;99.90
770;DHT22;368;48.698;9.116;2022-12-18T06:57:47;-11.80;99.90
770;DHT22;368;48.698;9.116;2022-12-18T07:00:14;-11.80;99.90
770;DHT22;368;48.698;9.116;2022-12-18T07:02:42;-11.60;99.90
770;DHT22;368;48.698;9.116;2022-12-18T07:05:10;-11.40;99.90
770;DHT22;368;48.698;9.116;2022-12-18T07:07:37;-11.40;99.90
770;DHT22;368;48.698;9.116;2022-12-18T07:10:04;-11.50;99.90
770;DHT22;368;48.698;9.116;2022-12-18T07:12:31;-11.70;99.90
770;DHT22;368;48.698;9.116;2022-12-18T07:14:58;-11.70;99.90
770;DHT22;368;48.698;9.116;2022-12-18T07:17:24;-11.70;99.90
770;DHT22;368;48.698;9.116;2022-12-18T07:19:51;-11.80;99.90
770;DHT22;368;48.698;9.116;2022-12-18T07:22:20;-11.70;99.90
770;DHT22;368;48.698;9.116;2022-12-18T07:24:46;-11.60;99.90
770;DHT22;368;48.698;9.116;2022-12-18T07:27:16;-11.60;99.90
770;DHT22;368;48.698;9.116;2022-12-18T07:29:43;-11.60;99.90
770;DHT22;368;48.698;9.116;2022-12-18T07:32:10;-11.40;99.90
770;DHT22;368;48.698;9.116;2022-12-18T07:34:37;-11.30;99.90
770;DHT22;368;48.698;9.116;2022-12-18T07:37:04;-11.10;99.90
770;DHT22;368;48.698;9.116;2022-12-18T07:39:32;-11.30;99.90
770;DHT22;368;48.698;9.116;2022-12-18T07:41:59;-11.20;99.90
770;DHT22;368;48.698;9.116;2022-12-18T07:44:43;-11.10;99.90
770;DHT22;368;48.698;9.116;2022-12-18T07:47:10;-10.80;99.90
770;DHT22;368;48.698;9.116;2022-12-18T07:49:36;-10.80;99.90
770;DHT22;368;48.698;9.116;2022-12-18T07:52:03;-10.40;99.90
770;DHT22;368;48.698;9.116;2022-12-18T07:54:32;-10.50;99.90
770;DHT22;368;48.698;9.116;2022-12-18T07:56:59;-10.70;99.90
770;DHT22;368;48.698;9.116;2022-12-18T07:59:26;-10.60;99.90
770;DHT22;368;48.698;9.116;2022-12-18T08:01:53;-10.50;99.90
770;DHT22;368;48.698;9.116;2022-12-18T08:04:20;-10.20;99.90
770;DHT22;368;48.698;9.116;2022-12-18T08:06:46;-10.40;99.90
770;DHT22;368;48.698;9.116;2022-12-18T08:09:13;-10.40;99.90
770;DHT22;368;48.698;9.116;2022-12-18T08:11:42;-10.40;99.90
770;DHT22;368;48.698;9.116;2022-12-18T08:14:09;-10.40;99.90
770;DHT22;368;48.698;9.116;2022-12-18T08:16:36;-10.40;99.90
770;DHT22;368;48.698;9.116;2022-12-18T08:19:03;-10.60;99.90
770;DHT22;368;48.698;9.116;2022-12-18T08:21:31;-10.40;99.90
770;DHT22;368;48.698;9.116;2022-12-18T08:23:59;-10.40;99.90
770;DHT22;368;48.698;9.116;2022-12-18T08:26:27;-10.30;99.90
770;DHT22;368;48.698;9.116;2022-12-18T08:28:56;-10.00;99.90
770;DHT22;368;48.698;9.116;2022-12-18T08:31:24;-9.80;99.90
770;DHT22;368;48.698;9.116;2022-12-18T08:33:53;-9.80;99.90
770;DHT22;368;48.698;9.116;2022-12-18T08:36:21;-9.70;99.90
770;DHT22;368;48.698;9.116;2022-12-18T08:38:48;-9.90;99.90
770;DHT22;368;48.698;9.116;2022-12-18T08:41:16;-9.80;99.90
770;DHT22;368;48.698;9.116;2022-12-18T08:43:43;-9.70;99.90
770;DHT22;368;48.698;9.116;2022-12-18T08:46:34;-9.80;99.90
770;DHT22;368;48.698;9.116;2022-12-18T08:49:01;-9.70;99.90
770;DHT22;368;48.698;9.116;2022-12-18T08:51:28;-9.10;99.90
770;DHT22;368;48.698;9.116;2022-12-18T08:53:55;-8.90;99.90
770;DHT22;368;48.698;9.116;2022-12-18T08:56:21;-9.20;99.90
770;DHT22;368;48.698;9.116;2022-12-18T08:58:51;-8.90;99.90
770;DHT22;368;48.698;9.116;2022-12-18T09:01:18;-8.60;99.90
770;DHT22;368;48.698;9.116;2022-12-18T09:03:49;-8.50;99.90
770;DHT22;368;48.698;9.116;2022-12-18T09:06:18;-8.20;99.90
770;DHT22;368;48.698;9.116;2022-12-18T09:08:45;-8.20;99.90
770;DHT22;368;48.698;9.116;2022-12-18T09:11:15;-7.90;99.90
770;DHT22;368;48.698;9.116;2022-12-18T09:13:45;-7.70;99.90
770;DHT22;368;48.698;9.116;2022-12-18T09:16:12;-7.90;99.90
770;DHT22;368;48.698;9.116;2022-12-18T09:18:38;-8.00;99.90
770;DHT22;368;48.698;9.116;2022-12-18T09:21:13;-7.70;99.90
770;DHT22;368;48.698;9.116;2022-12-18T09:23:40;-7.60;99.90
770;DHT22;368;48.698;9.116;2022-12-18T09:26:07;-7.20;99.90
770;DHT22;368;48.698;9.116;2022-12-18T09:28:34;-7.40;99.90
770;DHT22;368;48.698;9.116;2022-12-18T09:31:04;-7.20;99.90
770;DHT22;368;48.698;9.116;2022-12-18T09:33:32;-7.00;99.90
770;DHT22;368;48.698;9.116;2022-12-18T09:36:01;-6.70;99.90
770;DHT22;368;48.698;9.116;2022-12-18T09:38:29;-6.80;99.90
770;DHT22;368;48.698;9.116;2022-12-18T09:40:59;-6.50;99.90
770;DHT22;368;48.698;9.116;2022-12-18T09:43:30;-6.20;99.90
770;DHT22;368;48.698;9.116;2022-12-18T09:46:03;-6.10;99.90
770;DHT22;368;48.698;9.116;2022-12-18T09:48:32;-6.30;99.90
770;DHT22;368;48.698;9.116;2022-12-18T09:51:03;-5.90;99.90
770;DHT22;368;48.698;9.116;2022-12-18T09:53:37;-5.70;99.90
770;DHT22;368;48.698;9.116;2022-12-18T09:56:05;-5.70;99.90
770;DHT22;368;48.698;9.116;2022-12-18T09:58:38;-5.30;99.90
770;DHT22;368;48.698;9.116;2022-12-18T10:01:10;-5.30;99.90
770;DHT22;368;48.698;9.116;2022-12-18T10:03:38;-5.10;99.90
770;DHT22;368;48.698;9.116;2022-12-18T10:06:08;-5.20;99.90
770;DHT22;368;48.698;9.116;2022-12-18T10:08:45;-5.10;99.90
770;DHT22;368;48.698;9.116;2022-12-18T10:11:25;-5.10;99.90
770;DHT22;368;48.698;9.116;2022-12-18T10:13:57;-4.90;99.90
770;DHT22;368;48.698;9.116;2022-12-18T10:16:29;-4.70;99.90
770;DHT22;368;48.698;9.116;2022-12-18T10:19:06;-4.70;99.90
770;DHT22;368;48.698;9.116;2022-12-18T10:21:42;-4.30;99.90
770;DHT22;368;48.698;9.116;2022-12-18T10:24:18;-4.40;99.90
770;DHT22;368;48.698;9.116;2022-12-18T10:26:48;-4.10;99.90
770;DHT22;368;48.698;9.116;2022-12-18T10:29:16;-4.00;99.90
770;DHT22;368;48.698;9.116;2022-12-18T10:31:43;-3.90;99.90
770;DHT22;368;48.698;9.116;2022-12-18T10:34:10;-4.10;99.90
770;DHT22;368;48.698;9.116;2022-12-18T10:36:37;-4.00;99.90
770;DHT22;368;48.698;9.116;2022-12-18T10:39:17;-3.60;99.90
770;DHT22;368;48.698;9.116;2022-12-18T10:41:44;-3.70;99.90
770;DHT22;368;48.698;9.116;2022-12-18T10:44:15;-3.60;99.90
770;DHT22;368;48.698;9.116;2022-12-18T10:46:44;-3.70;99.90
770;DHT22;368;48.698;9.116;2022-12-18T10:49:21;-3.40;99.90
770;DHT22;368;48.698;9.116;2022-12-18T10:51:49;-3.10;99.90
770;DHT22;368;48.698;9.116;2022-12-18T10:54:21;-3.10;99.90
770;DHT22;368;48.698;9.116;2022-12-18T10:56:48;-2.90;99.90
770;DHT22;368;48.698;9.116;2022-12-18T10:59:17;-2.60;99.90
770;DHT22;368;48.698;9.116;2022-12-18T11:01:49;-2.70;99.90
770;DHT22;368;48.698;9.116;2022-12-18T11:04:19;-2.60;99.90
770;DHT22;368;48.698;9.116;2022-12-18T11:06:54;-2.80;99.90
770;DHT22;368;48.698;9.116;2022-12-18T11:09:24;-2.50;99.90
770;DHT22;368;48.698;9.116;2022-12-18T11:11:52;-2.50;99.90
770;DHT22;368;48.698;9.116;2022-12-18T11:14:22;-2.40;99.90
770;DHT22;368;48.698;9.116;2022-12-18T11:16:51;-2.10;99.90
770;DHT22;368;48.698;9.116;2022-12-18T11:19:31;-2.20;99.90
770;DHT22;368;48.698;9.116;2022-12-18T11:22:00;-1.90;99.90
770;DHT22;368;48.698;9.116;2022-12-18T11:24:29;-1.80;99.90
770;DHT22;368;48.698;9.116;2022-12-18T11:26:59;-2.00;99.90
770;DHT22;368;48.698;9.116;2022-12-18T11:29:33;-1.20;99.90
770;DHT22;368;48.698;9.116;2022-12-18T11:32:29;-0.90;99.90
770;DHT22;368;48.698;9.116;2022-12-18T11:35:01;0.20;99.90
770;DHT22;368;48.698;9.116;2022-12-18T11:37:29;2.30;99.90
770;DHT22;368;48.698;9.116;2022-12-18T11:40:03;3.10;95.90
770;DHT22;368;48.698;9.116;2022-12-18T11:42:37;3.30;95.50
770;DHT22;368;48.698;9.116;2022-12-18T11:45:26;3.00;95.90
770;DHT22;368;48.698;9.116;2022-12-18T11:47:58;4.50;92.90
770;DHT22;368;48.698;9.116;2022-12-18T11:50:30;4.50;90.80
770;DHT22;368;48.698;9.116;2022-12-18T11:52:58;5.00;91.30
770;DHT22;368;48.698;9.116;2022-12-18T11:55:39;5.30;89.00
770;DHT22;368;48.698;9.116;2022-12-18T11:58:13;5.70;88.70
770;DHT22;368;48.698;9.116;2022-12-18T12:00:46;5.50;87.10
770;DHT22;368;48.698;9.116;2022-12-18T12:03:27;4.80;90.30
770;DHT22;368;48.698;9.116;2022-12-18T12:06:08;4.70;90.20
770;DHT22;368;48.698;9.116;2022-12-18T12:08:48;5.30;88.70
770;DHT22;368;48.698;9.116;2022-12-18T12:11:26;4.80;87.50
770;DHT22;368;48.698;9.116;2022-12-18T12:14:08;5.00;90.00
770;DHT22;368;48.698;9.116;2022-12-18T12:16:46;4.90;88.60
770;DHT22;368;48.698;9.116;2022-12-18T12:19:26;3.90;89.00
770;DHT22;368;48.698;9.116;2022-12-18T12:22:04;3.40;90.70
770;DHT22;368;48.698;9.116;2022-12-18T12:24:44;3.10;91.50
770;DHT22;368;48.698;9.116;2022-12-18T12:27:20;2.90;91.90
770;DHT22;368;48.698;9.116;2022-12-18T12:30:00;2.80;92.30
770;DHT22;368;48.698;9.116;2022-12-18T12:32:45;2.40;93.20
770;DHT22;368;48.698;9.116;2022-12-18T12:35:25;2.00;93.50
770;DHT22;368;48.698;9.116;2022-12-18T12:38:05;1.30;94.70
770;DHT22;368;48.698;9.116;2022-12-18T12:40:36;1.70;95.40
770;DHT22;368;48.698;9.116;2022-12-18T12:43:27;1.80;95.20
770;DHT22;368;48.698;9.116;2022-12-18T12:45:56;2.20;94.30
770;DHT22;368;48.698;9.116;2022-12-18T12:48:35;2.10;94.50
770;DHT22;368;48.698;9.116;2022-12-18T12:51:06;1.90;94.60
770;DHT22;368;48.698;9.116;2022-12-18T12:53:37;2.10;93.80
770;DHT22;368;48.698;9.116;2022-12-18T12:56:05;2.10;93.80
770;DHT22;368;48.698;9.116;2022-12-18T12:58:41;1.60;94.30
770;DHT22;368;48.698;9.116;2022-12-18T13:01:17;1.10;94.80
770;DHT22;368;48.698;9.116;2022-12-18T13:03:55;0.70;95.70
770;DHT22;368;48.698;9.116;2022-12-18T13:06:35;1.10;96.10
770;DHT22;368;48.698;9.116;2022-12-18T13:09:03;1.60;94.90
770;DHT22;368;48.698;9.116;2022-12-18T13:11:34;1.40;95.50
770;DHT22;368;48.698;9.116;2022-12-18T13:14:32;1.70;95.50
770;DHT22;368;48.698;9.116;2022-12-18T13:17:24;1.20;94.80
770;DHT22;368;48.698;9.116;2022-12-18T13:20:04;1.10;95.50
770;DHT22;368;48.698;9.116;2022-12-18T13:22:35;1.20;95.30
770;DHT22;368;48.698;9.116;2022-12-18T13:25:02;0.50;96.10
770;DHT22;368;48.698;9.116;2022-12-18T13:27:57;0.80;96.50
770;DHT22;368;48.698;9.116;2022-12-18T13:30:49;0.90;96.00
770;DHT22;368;48.698;9.116;2022-12-18T13:33:39;0.90;95.80
770;DHT22;368;48.698;9.116;2022-12-18T13:36:29;0.40;96.20
770;DHT22;368;48.698;9.116;2022-12-18T13:41:54;0.80;96.00
770;DHT22;368;48.698;9.116;2022-12-18T13:45:00;0.60;95.50
770;DHT22;368;48.698;9.116;2022-12-18T13:47:32;-0.10;96.40
770;DHT22;368;48.698;9.116;2022-12-18T13:50:00;-0.60;97.80
770;DHT22;368;48.698;9.116;2022-12-18T13:52:28;-0.80;97.70
770;DHT22;368;48.698;9.116;2022-12-18T13:55:02;-0.90;99.20
770;DHT22;368;48.698;9.116;2022-12-18T13:57:32;-1.10;99.00
770;DHT22;368;48.698;9.116;2022-12-18T14:00:23;-1.00;99.90
770;DHT22;368;48.698;9.116;2022-12-18T14:02:52;-0.90;99.40
770;DHT22;368;48.698;9.116;2022-12-18T14:05:22;-0.50;99.50
770;DHT22;368;48.698;9.116;2022-12-18T14:07:49;-0.40;98.80
770;DHT22;368;48.698;9.116;2022-12-18T14:10:16;-0.50;98.20
770;DHT22;368;48.698;9.116;2022-12-18T14:12:45;-0.40;98.40
770;DHT22;368;48.698;9.116;2022-12-18T14:15:30;-0.90;98.60
770;DHT22;368;48.698;9.116;2022-12-18T14:18:01;-0.90;99.00
770;DHT22;368;48.698;9.116;2022-12-18T14:20:30;-1.10;99.20
770;DHT22;368;48.698;9.116;2022-12-18T14:22:59;-0.90;99.60
770;DHT22;368;48.698;9.116;2022-12-18T14:25:27;-1.00;99.80
770;DHT22;368;48.698;9.116;2022-12-18T14:28:07;-1.30;99.80
770;DHT22;368;48.698;9.116;2022-12-18T14:30:36;-1.50;99.60
770;DHT22;368;48.698;9.116;2022-12-18T14:33:08;-1.70;99.80
770;DHT22;368;48.698;9.116;2022-12-18T14:35:37;-1.50;99.90
770;DHT22;368;48.698;9.116;2022-12-18T14:38:20;-2.10;99.70
770;DHT22;368;48.698;9.116;2022-12-18T14:40:47;-2.20;99.90
770;DHT22;368;48.698;9.116;2022-12-18T14:43:14;-2.70;99.90
770;DHT22;368;48.698;9.116;2022-12-18T14:45:42;-2.50;99.90
770;DHT22;368;48.698;9.116;2022-12-18T14:48:16;-2.40;99.90
770;DHT22;368;48.698;9.116;2022-12-18T14:50:43;-2.80;99.90
770;DHT22;368;48.698;9.116;2022-12-18T14:53:21;-3.20;99.90
770;DHT22;368;48.698;9.116;2022-12-18T14:55:49;-2.90;99.90
770;DHT22;368;48.698;9.116;2022-12-18T14:58:17;-3.00;99.90
770;DHT22;368;48.698;9.116;2022-12-18T15:00:44;-3.00;99.90
770;DHT22;368;48.698;9.116;2022-12-18T15:03:18;-3.50;99.90
770;DHT22;368;48.698;9.116;2022-12-18T15:05:46;-3.30;99.90
770;DHT22;368;48.698;9.116;2022-12-18T15:08:31;-3.70;99.90
770;DHT22;368;48.698;9.116;2022-12-18T15:11:00;-3.90;99.90
770;DHT22;368;48.698;9.116;2022-12-18T15:13:27;-3.90;99.90
770;DHT22;368;48.698;9.116;2022-12-18T15:15:55;-4.00;99.90
770;DHT22;368;48.698;9.116;2022-12-18T15:18:30;-4.10;99.90
770;DHT22;368;48.698;9.116;2022-12-18T15:21:00;-4.10;99.90
770;DHT22;368;48.698;9.116;2022-12-18T15:23:36;-4.20;99.90
770;DHT22;368;48.698;9.116;2022-12-18T15:26:04;-4.20;99.90
770;DHT22;368;48.698;9.116;2022-12-18T15:28:34;-4.20;99.90
770;DHT22;368;48.698;9.116;2022-12-18T15:31:24;-4.00;99.90
770;DHT22;368;48.698;9.116;2022-12-18T15:34:19;-4.00;99.90
770;DHT22;368;48.698;9.116;2022-12-18T15:36:47;-4.20;99.90
770;DHT22;368;48.698;9.116;2022-12-18T15:39:14;-4.40;99.90
770;DHT22;368;48.698;9.116;2022-12-18T15:41:41;-4.50;99.90
770;DHT22;368;48.698;9.116;2022-12-18T15:44:28;-4.40;99.90
770;DHT22;368;48.698;9.116;2022-12-18T15:46:55;-4.40;99.90
770;DHT22;368;48.698;9.116;2022-12-18T15:49:24;-4.50;99.90
770;DHT22;368;48.698;9.116;2022-12-18T15:51:53;-4.70;99.90
770;DHT22;368;48.698;9.116;2022-12-18T15:54:21;-4.70;99.90
770;DHT22;368;48.698;9.116;2022-12-18T15:57:09;-4.70;99.90
770;DHT22;368;48.698;9.116;2022-12-18T15:59:52;-4.80;99.90
770;DHT22;368;48.698;9.116;2022-12-18T16:02:20;-5.00;99.90
770;DHT22;368;48.698;9.116;2022-12-18T16:04:51;-5.00;99.90
770;DHT22;368;48.698;9.116;2022-12-18T16:07:19;-4.90;99.90
770;DHT22;368;48.698;9.116;2022-12-18T16:09:47;-5.00;99.90
770;DHT22;368;48.698;9.116;2022-12-18T16:12:21;-5.10;99.90
770;DHT22;368;48.698;9.116;2022-12-18T16:14:48;-4.90;99.90
770;DHT22;368;48.698;9.116;2022-12-18T16:17:15;-4.90;99.90
770;DHT22;368;48.698;9.116;2022-12-18T16:19:42;-5.00;99.90
770;DHT22;368;48.698;9.116;2022-12-18T16:22:18;-4.90;99.90
770;DHT22;368;48.698;9.116;2022-12-18T16:24:46;-4.90;99.90
770;DHT22;368;48.698;9.116;2022-12-18T16:27:13;-4.80;99.90
770;DHT22;368;48.698;9.116;2022-12-18T16:29:40;-4.70;99.90
770;DHT22;368;48.698;9.116;2022-12-18T16:32:12;-4.70;99.90
770;DHT22;368;48.698;9.116;2022-12-18T16:34:39;-4.70;99.90
770;DHT22;368;48.698;9.116;2022-12-18T16:37:08;-4.70;99.90
770;DHT22;368;48.698;9.116;2022-12-18T16:39:38;-4.70;99.90
770;DHT22;368;48.698;9.116;2022-12-18T16:42:08;-4.60;99.90
770;DHT22;368;48.698;9.116;2022-12-18T16:44:38;-4.60;99.90
770;DHT22;368;48.698;9.116;2022-12-18T16:47:04;-4.60;99.90
770;DHT22;368;48.698;9.116;2022-12-18T16:49:31;-4.60;99.90
770;DHT22;368;48.698;9.116;2022-12-18T16:51:58;-4.60;99.90
770;DHT22;368;48.698;9.116;2022-12-18T16:54:25;-4.70;99.90